Time;durP1;ratioP1;P1;durP2;ratioP2;P2;SDS_P1;SDS_P2;PMS_P1;PMS_P2;Temp;Humidity;BMP_temperature;BMP_pressure;BME280_temperature;BME280_humidity;BME280_pressure;Samples;Min_cycle;Max_cycle;Signal;HPM_P1;HPM_P2
2022/02/21 00:00:33;;;;;;;1.00;0.30;;;9.40;99.90;;;7.89;100.00;98145.25;4821331;29;20060;-85
2022/02/21 00:02:59;;;;;;;2.33;0.22;;;9.40;99.90;;;7.91;100.00;98138.09;4817898;29;20648;-81
2022/02/21 00:05:27;;;;;;;1.50;0.35;;;;;;;7.93;100.00;98130.97;4827993;29;20035;-81
2022/02/21 00:07:59;;;;;;;2.60;0.40;;;9.40;99.90;;;7.93;100.00;98129.16;4798257;23;20055;-85
2022/02/21 00:10:25;;;;;;;0.77;0.35;;;9.40;99.90;;;7.95;100.00;98108.09;4904949;28;20047;-86
2022/02/21 00:12:52;;;;;;;0.73;0.30;;;9.40;99.90;;;7.98;100.00;98111.28;4867837;28;20111;-88
2022/02/21 00:15:23;;;;;;;1.20;0.40;;;9.40;99.90;;;8.01;100.00;98104.97;4860752;28;20038;-84
2022/02/21 00:17:56;;;;;;;1.13;0.30;;;9.50;99.90;;;8.04;100.00;98096.06;4830000;28;20099;-84
2022/02/21 00:20:22;;;;;;;1.77;0.40;;;9.50;99.90;;;8.05;100.00;98079.38;4843171;28;20539;-86
2022/02/21 00:22:57;;;;;;;1.00;0.50;;;9.50;99.90;;;8.06;100.00;98068.78;4841584;28;20034;-86
2022/02/21 00:25:24;;;;;;;2.78;0.70;;;9.50;99.90;;;8.04;100.00;98057.59;4853609;28;20036;-82
2022/02/21 00:27:50;;;;;;;1.27;0.50;;;9.50;99.90;;;8.06;100.00;98057.47;4827512;23;20036;-85
2022/02/21 00:30:25;;;;;;;0.88;0.28;;;;;;;8.09;100.00;98055.41;4803308;28;20146;-86
2022/02/21 00:32:51;;;;;;;1.13;0.40;;;9.60;99.90;;;8.11;100.00;98036.97;4842477;28;20058;-80
2022/02/21 00:35:17;;;;;;;1.05;0.45;;;9.50;99.90;;;8.13;100.00;98040.28;4854192;28;20058;-80
2022/02/21 00:37:43;;;;;;;1.63;0.47;;;9.50;99.90;;;8.11;100.00;98024.69;4844717;28;20428;-81
2022/02/21 00:40:18;;;;;;;3.22;0.50;;;9.60;99.90;;;8.10;100.00;98023.03;4824524;29;20134;-80
2022/02/21 00:42:44;;;;;;;1.25;0.40;;;9.60;99.90;;;8.05;100.00;98014.69;4831975;29;20134;-81
2022/02/21 00:45:11;;;;;;;1.25;0.60;;;9.60;99.90;;;8.06;100.00;98011.13;4834380;28;21272;-81
2022/02/21 00:47:43;;;;;;;0.90;0.40;;;10.40;99.90;;;8.10;100.00;97998.59;4847275;23;20203;-82
2022/02/21 00:50:10;;;;;;;0.55;0.35;;;9.60;99.90;;;8.13;100.00;97999.19;4890575;29;20041;-81
2022/02/21 00:52:37;;;;;;;1.08;0.50;;;9.60;99.90;;;8.13;100.00;97993.13;4868641;29;20098;-80
2022/02/21 00:55:26;;;;;;;0.60;0.40;;;9.60;99.90;;;8.17;100.00;97989.31;4830126;29;20032;-80
2022/02/21 00:57:52;;;;;;;2.22;0.40;;;9.60;99.90;;;8.16;100.00;97985.00;4866003;29;20059;-80
2022/02/21 01:00:19;;;;;;;2.05;0.50;;;9.60;99.90;;;8.19;100.00;97969.03;4797258;29;20677;-80
2022/02/21 01:02:45;;;;;;;2.70;0.60;;;9.60;99.90;;;8.19;100.00;97967.25;4797306;29;20077;-82
2022/02/21 01:05:19;;;;;;;0.85;0.38;;;9.60;99.90;;;8.21;100.00;97956.66;4799811;29;20481;-81
2022/02/21 01:07:46;;;;;;;1.27;0.38;;;9.60;99.90;;;8.22;100.00;97960.91;4805160;29;20072;-80
2022/02/21 01:10:12;;;;;;;2.75;0.57;;;9.70;99.90;;;8.19;100.00;97953.31;4800588;29;20119;-80
2022/02/21 01:12:39;;;;;;;3.30;0.47;;;9.70;99.90;;;8.21;100.00;97930.44;4810921;29;20035;-80
2022/02/21 01:15:15;;;;;;;3.35;0.60;;;9.70;99.90;;;8.26;100.00;97932.69;4819510;29;20032;-80
2022/02/21 01:17:50;;;;;;;1.15;0.40;;;9.70;99.90;;;8.25;100.00;97931.84;4841469;29;20028;-80
2022/02/21 01:20:16;;;;;;;1.45;0.60;;;9.70;99.90;;;8.24;100.00;97930.16;4813216;29;20044;-81
2022/02/21 01:22:42;;;;;;;1.70;0.60;;;9.70;99.90;;;8.25;100.00;97907.41;4814641;29;20085;-82
2022/02/21 01:25:09;;;;;;;2.53;0.50;;;9.70;99.90;;;8.26;100.00;97898.59;4805976;29;20126;-79
2022/02/21 01:27:35;;;;;;;2.53;0.40;;;9.70;99.90;;;8.27;100.00;97893.25;4829885;29;20028;-80
2022/02/21 01:30:07;;;;;;;5.43;0.60;;;9.70;99.90;;;8.27;100.00;97876.66;4821077;29;20084;-81
2022/02/21 01:32:33;;;;;;;3.65;0.52;;;9.70;99.90;;;8.26;100.00;97857.47;4807644;29;20035;-81
2022/02/21 01:35:00;;;;;;;0.95;0.55;;;9.70;99.90;;;8.26;100.00;97860.09;4826390;29;20529;-80
2022/02/21 01:37:26;;;;;;;2.20;0.68;;;9.70;99.90;;;8.29;100.00;97836.25;4839960;29;20460;-81
2022/02/21 01:39:59;;;;;;;2.83;0.73;;;9.70;99.90;;;8.31;100.00;97842.19;4807075;29;20040;-81
2022/02/21 01:42:26;;;;;;;2.53;0.60;;;9.80;99.90;;;8.33;100.00;97829.78;4856559;29;20037;-81
2022/02/21 01:44:52;;;;;;;3.35;0.55;;;9.80;99.90;;;8.32;100.00;97822.91;4823252;29;20192;-81
2022/02/21 01:47:25;;;;;;;5.88;0.60;;;9.80;99.90;;;8.33;100.00;97792.25;4813163;29;20581;-81
2022/02/21 01:49:51;;;;;;;5.18;0.80;;;9.80;99.90;;;8.35;100.00;97800.81;4838823;29;20020;-80
2022/02/21 01:52:21;;;;;;;2.58;0.70;;;9.80;99.90;;;8.36;100.00;97799.88;4824922;29;20109;-81
2022/02/21 01:54:48;;;;;;;1.15;0.32;;;9.80;99.90;;;8.34;100.00;97800.00;4811735;29;20505;-80
2022/02/21 01:57:17;;;;;;;2.78;0.70;;;9.80;99.90;;;8.35;100.00;97795.56;4835564;29;20043;-81
2022/02/21 01:59:44;;;;;;;0.73;0.30;;;9.80;99.90;;;8.31;100.00;97794.16;4815974;29;20044;-81
2022/02/21 02:02:11;;;;;;;2.78;0.70;;;9.80;99.90;;;8.32;100.00;97783.56;4804770;29;20043;-80
2022/02/21 02:04:38;;;;;;;2.88;0.50;;;9.80;99.90;;;8.31;100.00;97778.44;4803984;29;20043;-81
2022/02/21 02:07:13;;;;;;;3.10;0.57;;;9.80;99.90;;;8.34;100.00;97786.88;4811258;29;20032;-81
2022/02/21 02:09:40;;;;;;;3.07;0.50;;;9.70;99.90;;;8.29;100.00;97781.19;4782983;29;20079;-81
2022/02/21 02:12:14;;;;;;;0.40;0.30;;;9.80;99.90;;;8.32;100.00;97786.19;4806090;29;20304;-81
2022/02/21 02:14:42;;;;;;;3.50;0.40;;;9.80;99.90;;;8.29;100.00;97780.38;4817645;29;22749;-81
2022/02/21 02:17:17;;;;;;;2.38;0.50;;;9.70;99.90;;;8.28;100.00;97783.97;4822633;29;20036;-80
2022/02/21 02:19:46;;;;;;;2.78;0.60;;;9.70;99.90;;;8.25;100.00;97784.19;4813669;29;20044;-81
2022/02/21 02:22:24;;;;;;;0.98;0.47;;;9.70;99.90;;;8.21;100.00;97781.03;4820660;29;20040;-80
2022/02/21 02:24:53;;;;;;;2.33;0.40;;;9.60;99.90;;;8.16;100.00;97778.78;4815780;29;20107;-80
2022/02/21 02:27:28;;;;;;;3.65;0.55;;;9.60;99.90;;;8.12;100.00;97793.09;4808045;29;20032;-82
2022/02/21 02:30:04;;;;;;;2.23;0.50;;;9.60;99.90;;;8.16;100.00;97801.53;4867472;29;20116;-81
2022/02/21 02:32:30;;;;;;;2.20;0.63;;;9.60;99.90;;;8.18;100.00;97802.22;4798745;29;20081;-82
2022/02/21 02:34:56;;;;;;;2.58;0.68;;;9.60;99.90;;;8.16;100.00;97794.53;4801096;29;20111;-81
2022/02/21 02:37:25;;;;;;;1.55;0.40;;;9.60;99.90;;;8.21;100.00;97788.88;4850834;29;20044;-81
2022/02/21 02:39:57;;;;;;;6.13;0.60;;;9.70;99.90;;;8.31;100.00;97786.31;4859419;29;20048;-80
2022/02/21 02:42:24;;;;;;;6.43;0.70;;;9.70;99.90;;;8.35;100.00;97793.78;4809451;29;20033;-82
2022/02/21 02:44:50;;;;;;;10.55;1.17;;;9.70;99.90;;;8.35;100.00;97833.09;4852556;29;20077;-81
2022/02/21 02:47:16;;;;;;;4.90;0.70;;;9.70;99.90;;;8.23;100.00;97810.56;4816905;29;20044;-82
2022/02/21 02:50:07;;;;;;;1.88;0.30;;;9.70;99.90;;;8.17;100.00;97818.94;4793717;29;20466;-82
2022/02/21 03:08:18;;;;;;;1.55;0.40;;;9.00;99.90;;;7.41;100.00;97858.25;4797667;29;20369;-82
2022/02/21 03:10:44;;;;;;;1.15;0.20;;;8.90;99.90;;;7.30;100.00;97845.16;4793756;29;20060;-81
2022/02/21 03:13:10;;;;;;;1.35;0.30;;;8.80;99.90;;;7.26;100.00;97854.22;4833611;29;20063;-82
2022/02/21 03:15:45;;;;;;;3.13;0.40;;;8.70;99.90;;;7.16;100.00;97848.88;4802843;29;20032;-81
2022/02/21 03:18:11;;;;;;;0.77;0.17;;;;;;;7.05;100.00;97867.19;4792772;29;20031;-81
2022/02/21 03:20:37;;;;;;;2.85;0.28;;;8.50;99.90;;;6.92;100.00;97873.38;4845407;29;20513;-81
2022/02/21 03:23:03;;;;;;;3.58;0.30;;;8.50;99.90;;;6.87;100.00;97870.28;4809121;29;20028;-81
2022/02/21 03:25:38;;;;;;;1.60;0.30;;;8.40;99.90;;;6.78;100.00;97892.75;4784913;29;20044;-82
2022/02/21 03:28:04;;;;;;;4.28;0.70;;;8.30;99.90;;;6.69;100.00;97901.28;4886270;29;20560;-81
2022/02/21 03:30:30;;;;;;;1.95;0.20;;;8.30;99.90;;;6.72;100.00;97910.69;4794978;29;20041;-81
2022/02/21 03:33:01;;;;;;;1.92;0.40;;;8.30;99.90;;;6.73;100.00;97905.31;4775253;29;20049;-82
2022/02/21 03:35:28;;;;;;;2.50;0.50;;;8.20;99.90;;;6.71;100.00;97907.22;4801228;29;20399;-81
2022/02/21 03:37:54;;;;;;;0.90;0.35;;;8.20;99.90;;;6.72;100.00;97913.31;4815575;29;20487;-81
2022/02/21 03:40:20;;;;;;;2.42;0.32;;;8.20;99.90;;;6.71;100.00;97920.28;4837337;29;20050;-81
2022/02/21 03:42:46;;;;;;;1.77;0.30;;;8.20;99.90;;;6.67;100.00;97912.81;4820105;29;20051;-82
2022/02/21 03:45:22;;;;;;;1.25;0.30;;;8.20;99.90;;;6.67;100.00;97929.31;4794558;29;20029;-81
2022/02/21 03:47:50;;;;;;;2.88;0.40;;;8.10;99.90;;;6.63;100.00;97930.53;4834705;29;20150;-81
2022/02/21 03:50:21;;;;;;;0.70;0.20;;;8.10;99.90;;;6.57;100.00;97931.81;4827939;29;20045;-82
2022/02/21 03:52:48;;;;;;;1.17;0.20;;;8.10;99.90;;;6.54;100.00;97950.34;4804453;29;20045;-81
2022/02/21 03:55:15;;;;;;;1.20;0.30;;;8.10;99.90;;;6.49;100.00;97944.59;4827691;29;20301;-81
2022/02/21 03:57:41;;;;;;;4.05;0.20;;;8.00;99.90;;;6.46;100.00;97944.84;4820064;29;20028;-82
2022/02/21 04:00:18;;;;;;;0.60;0.20;;;8.00;99.90;;;6.44;100.00;97938.91;4822959;29;20130;-82
2022/02/21 04:02:45;;;;;;;0.77;0.10;;;8.00;99.90;;;6.41;100.00;97935.66;4822275;29;20032;-82
2022/02/21 04:05:20;;;;;;;0.93;0.10;;;7.90;99.90;;;6.39;100.00;97929.72;4842108;29;20549;-83
2022/02/21 04:07:46;;;;;;;1.90;0.10;;;7.90;99.90;;;6.41;100.00;97933.88;4822040;29;20028;-82
2022/02/21 04:10:14;;;;;;;0.28;0.00;;;7.90;99.90;;;6.33;100.00;97946.69;4878336;29;20296;-81
2022/02/21 04:12:50;;;;;;;0.85;0.10;;;7.90;99.90;;;6.29;100.00;97959.16;4818573;29;20025;-81
2022/02/21 04:15:16;;;;;;;0.10;0.05;;;7.80;99.90;;;6.30;100.00;97966.03;4796015;29;20490;-82
2022/02/21 04:17:51;;;;;;;3.35;0.13;;;7.80;99.90;;;6.23;100.00;97984.91;4821551;29;20116;-83
2022/02/21 04:20:30;;;;;;;0.30;0.00;;;7.70;99.90;;;6.12;100.00;97996.13;4788253;29;20115;-82
2022/02/21 04:22:56;;;;;;;1.10;0.10;;;7.60;99.90;;;5.90;100.00;98013.28;4795791;29;20540;-81
2022/02/21 04:25:23;;;;;;;1.98;0.20;;;7.50;99.90;;;5.77;100.00;98020.31;4799975;29;20048;-81
2022/02/21 04:27:58;;;;;;;0.52;0.05;;;7.40;99.90;;;5.60;100.00;98025.88;4832720;29;20032;-82
2022/02/21 04:30:27;;;;;;;0.10;0.10;;;7.20;99.90;;;5.48;100.00;98027.56;4793427;29;20564;-83
2022/02/21 04:32:54;;;;;;;1.42;0.20;;;7.10;99.90;;;5.43;100.00;98035.69;4837177;29;20095;-82
2022/02/21 04:35:29;;;;;;;1.50;0.22;;;7.00;99.90;;;5.33;100.00;98042.47;4789907;29;20119;-81
2022/02/21 04:37:55;;;;;;;3.55;0.30;;;7.00;99.90;;;5.32;100.00;98038.22;4790330;29;20111;-83
2022/02/21 04:40:30;;;;;;;3.92;0.20;;;6.90;99.90;;;5.25;100.00;98061.28;4814385;29;20055;-82
2022/02/21 04:42:57;;;;;;;1.98;0.30;;;6.80;99.90;;;5.16;100.00;98061.03;4806498;29;20056;-83
2022/02/21 04:45:25;;;;;;;1.55;0.22;;;6.70;99.90;;;5.10;100.00;98068.34;4796521;29;20127;-82
2022/02/21 04:47:59;;;;;;;5.90;0.35;;;6.70;99.90;;;5.12;100.00;98071.69;4788379;29;20437;-81
2022/02/21 04:50:25;;;;;;;3.15;0.30;;;6.70;99.90;;;5.13;100.00;98078.56;4829183;29;20051;-81
2022/02/21 04:52:51;;;;;;;2.15;0.20;;;6.70;99.90;;;5.16;100.00;98079.31;4803331;29;20043;-82
2022/02/21 04:55:17;;;;;;;2.25;0.47;;;6.70;99.90;;;5.13;100.00;98073.34;4812923;29;20032;-82
2022/02/21 04:57:43;;;;;;;3.55;0.45;;;6.70;99.90;;;5.17;100.00;98092.25;4795458;29;20032;-81
2022/02/21 05:00:18;;;;;;;7.72;0.60;;;6.70;99.90;;;5.20;100.00;98086.81;4820120;29;20048;-82
2022/02/21 05:02:44;;;;;;;8.02;1.00;;;6.70;99.90;;;5.16;100.00;98087.13;4804843;29;20028;-82
2022/02/21 05:05:11;;;;;;;7.60;0.75;;;6.70;99.90;;;5.19;100.00;98086.94;4835448;29;20055;-81
2022/02/21 05:07:44;;;;;;;10.23;0.70;;;;;;;5.17;100.00;98086.22;4792071;29;20028;-82
2022/02/21 05:10:10;;;;;;;3.58;0.60;;;6.70;99.90;;;5.16;100.00;98103.59;4844398;29;20517;-84
2022/02/21 05:12:37;;;;;;;3.13;0.38;;;;;;;5.11;100.00;98096.09;4836057;29;20064;-84
2022/02/21 05:15:11;;;;;;;11.38;1.30;;;;;;;5.08;100.00;98106.75;4840650;29;20028;-82
2022/02/21 05:17:38;;;;;;;10.05;1.30;;;6.70;99.90;;;5.07;100.00;98104.22;4868305;29;20059;-82
2022/02/21 05:20:14;;;;;;;7.47;0.93;;;;;;;5.06;100.00;98113.84;4844265;29;20044;-82
2022/02/21 05:22:40;;;;;;;;;;;6.60;99.90;;;4.96;100.00;98128.41;4836097;29;20524;-83
2022/02/21 05:25:09;;;;;;;4.33;0.57;;;6.60;99.90;;;4.93;100.00;98120.78;4819283;29;19963;-83
2022/02/21 05:27:47;;;;;;;11.27;1.13;;;6.50;99.90;;;4.89;100.00;98129.75;4853258;29;20080;-83
2022/02/21 05:30:23;;;;;;;8.05;1.00;;;6.50;99.90;;;4.86;100.00;98135.13;4863629;29;20110;-83
2022/02/21 05:33:02;;;;;;;4.85;0.70;;;;;;;4.83;100.00;98137.97;4824904;29;20036;-84
2022/02/21 05:35:29;;;;;;;11.80;1.38;;;6.40;99.90;;;4.69;100.00;98150.13;4851919;29;20047;-83
2022/02/21 05:37:56;;;;;;;6.80;1.27;;;6.30;99.90;;;4.60;100.00;98155.91;4857768;29;20068;-83
2022/02/21 05:40:22;;;;;;;8.18;1.08;;;6.20;99.90;;;4.49;100.00;98150.53;4829819;29;20060;-82
2022/02/21 05:42:52;;;;;;;14.65;1.40;;;6.10;99.90;;;4.39;100.00;98165.06;4798881;29;20028;-82
2022/02/21 05:45:18;;;;;;;11.80;1.58;;;6.00;99.90;;;4.26;100.00;98165.81;4788986;29;20609;-82
2022/02/21 05:47:44;;;;;;;25.13;2.58;;;5.90;99.90;;;4.20;100.00;98175.78;4833335;29;20060;-82
2022/02/21 05:50:10;;;;;;;12.57;1.85;;;5.80;99.90;;;4.16;100.00;98171.69;4809251;29;20032;-82
2022/02/21 05:52:36;;;;;;;23.13;3.17;;;5.80;99.90;;;4.19;100.00;98187.97;4803263;29;20432;-81
2022/02/21 05:55:02;;;;;;;24.17;2.75;;;5.80;99.90;;;4.17;100.00;98182.03;4803052;29;20020;-82
2022/02/21 05:57:38;;;;;;;16.45;2.00;;;5.80;99.90;;;4.17;100.00;98195.03;4809779;29;20510;-83
2022/02/21 06:00:06;;;;;;;30.30;3.55;;;5.80;99.90;;;4.22;100.00;98193.00;4806192;29;20057;-81
2022/02/21 06:02:40;;;;;;;31.50;3.30;;;5.80;99.90;;;4.27;100.00;98209.16;4831249;29;20031;-81
2022/02/21 06:05:07;;;;;;;26.13;3.47;;;5.80;99.90;;;4.25;100.00;98205.81;4789246;29;20116;-82
2022/02/21 06:07:33;;;;;;;26.00;3.70;;;5.80;99.90;;;4.25;100.00;98211.03;4807740;29;20104;-83
2022/02/21 06:09:59;;;;;;;26.55;3.10;;;5.80;99.90;;;4.25;100.00;98216.22;4806471;29;20412;-81
2022/02/21 06:12:32;;;;;;;26.73;4.30;;;5.80;99.90;;;4.30;100.00;98223.78;4841082;29;20537;-83
2022/02/21 06:14:59;;;;;;;25.05;3.45;;;5.90;99.90;;;4.30;100.00;98223.78;4817992;29;20098;-83
2022/02/21 06:17:25;;;;;;;27.67;3.15;;;5.80;99.90;;;4.30;100.00;98235.03;4836160;29;20039;-81
2022/02/21 06:19:51;;;;;;;26.80;3.28;;;5.80;99.90;;;4.30;100.00;98226.41;4813848;29;20511;-84
2022/02/21 06:22:24;;;;;;;25.73;3.17;;;5.80;99.90;;;4.25;100.00;98231.03;4807901;29;20037;-82
2022/02/21 06:24:50;;;;;;;30.83;4.28;;;5.80;99.90;;;4.22;100.00;98237.28;4814575;29;20036;-84
2022/02/21 06:27:16;;;;;;;44.58;3.47;;;5.80;99.90;;;4.23;99.86;98236.34;4889021;29;20707;-83
2022/02/21 06:29:42;;;;;;;32.97;4.65;;;5.80;99.90;;;4.26;99.54;98236.16;4834192;29;20501;-82
2022/02/21 06:32:17;;;;;;;21.65;3.50;;;;;;;4.27;100.00;98235.22;4800053;29;20021;-83
2022/02/21 06:34:43;;;;;;;27.90;3.17;;;5.80;99.90;;;4.35;99.71;98241.75;4804216;29;20028;-82
2022/02/21 06:37:09;;;;;;;37.55;3.95;;;5.80;99.90;;;4.37;99.50;98245.94;4819269;29;20282;-81
2022/02/21 06:39:35;;;;;;;27.35;3.80;;;5.90;99.90;;;4.42;99.06;98248.25;4827266;29;20035;-81
2022/02/21 06:42:11;;;;;;;30.77;4.10;;;5.90;99.90;;;4.34;99.29;98260.91;4802899;29;20072;-81
2022/02/21 06:44:36;;;;;;;37.20;4.13;;;5.80;99.90;;;4.24;100.00;98290.13;4801146;29;20067;-81
2022/02/21 06:47:03;;;;;;;29.05;3.95;;;5.80;99.90;;;4.15;100.00;98293.28;4805939;29;20051;-84
2022/02/21 06:49:36;;;;;;;32.05;3.85;;;5.60;99.90;;;4.03;100.00;98325.25;4799738;29;20042;-82
2022/02/21 06:52:02;;;;;;;22.80;3.22;;;5.50;99.90;;;3.71;100.00;98340.94;4823524;29;20398;-82
2022/02/21 06:54:28;;;;;;;13.77;1.55;;;5.30;99.90;;;3.32;100.00;98376.03;4791453;29;20048;-82
2022/02/21 06:56:54;;;;;;;18.23;1.90;;;5.00;99.90;;;3.10;100.00;98385.94;4801737;29;20496;-83
2022/02/21 06:59:25;;;;;;;12.45;1.70;;;4.90;99.90;;;3.02;100.00;98369.00;4820786;29;20036;-82
2022/02/21 07:01:51;;;;;;;25.13;3.08;;;4.80;99.90;;;2.98;100.00;98351.00;4797246;29;20133;-82
2022/02/21 07:04:17;;;;;;;16.80;1.90;;;4.70;99.90;;;2.90;100.00;98338.44;4817475;29;20543;-82
2022/02/21 07:06:42;;;;;;;16.95;1.83;;;4.70;99.90;;;3.04;100.00;98346.31;4806047;29;20570;-83
2022/02/21 07:09:08;;;;;;;19.50;2.17;;;4.70;99.90;;;3.08;100.00;98355.63;4817717;29;20033;-80
2022/02/21 07:11:34;;;;;;;19.02;2.03;;;4.70;99.90;;;3.15;100.00;98363.13;4827033;29;20028;-81
2022/02/21 07:14:09;;;;;;;27.77;2.78;;;4.70;99.90;;;3.19;100.00;98360.25;4827438;29;20493;-83
2022/02/21 07:16:35;;;;;;;25.83;2.25;;;4.80;99.90;;;3.31;100.00;98358.78;4837814;29;20050;-81
2022/02/21 07:19:00;;;;;;;24.58;2.58;;;4.90;99.90;;;4.01;100.00;98358.34;4822901;29;20481;-81
2022/02/21 07:21:26;;;;;;;21.10;2.42;;;5.20;99.90;;;5.20;100.00;98349.50;4827265;29;20724;-81
2022/02/21 07:23:59;;;;;;;29.90;3.38;;;5.50;99.90;;;5.97;98.76;98358.50;4794736;29;20040;-83
2022/02/21 07:26:25;;;;;;;29.35;4.05;;;5.90;99.90;;;8.09;90.93;98330.63;4834297;29;20038;-81
2022/02/21 07:28:51;;;;;;;31.33;3.67;;;6.70;99.90;;;9.34;79.88;98340.28;4807662;29;20055;-82
2022/02/21 07:31:18;;;;;;;37.20;4.18;;;7.30;99.90;;;10.12;74.75;98340.16;4811737;29;20052;-81
2022/02/21 07:33:50;;;;;;;25.73;3.90;;;7.80;99.90;;;8.61;73.16;98379.16;4810033;29;20527;-81
2022/02/21 07:36:16;;;;;;;26.25;3.78;;;7.90;99.90;;;8.08;76.44;98364.78;4815329;29;20055;-83
2022/02/21 07:38:45;;;;;;;36.80;4.72;;;7.80;99.90;;;9.49;74.96;98382.06;4814492;29;20051;-84
2022/02/21 07:41:11;;;;;;;31.08;3.95;;;8.30;99.90;;;11.52;67.10;98394.13;4846366;29;20068;-83
2022/02/21 07:43:41;;;;;;;27.27;3.42;;;8.90;99.90;;;12.57;62.96;98388.25;4822066;29;20080;-83
2022/02/21 07:46:08;;;;;;;26.52;2.97;;;9.60;99.90;;;12.60;60.50;98417.84;4805245;29;20113;-82
2022/02/21 07:48:34;;;;;;;25.95;3.47;;;10.10;99.90;;;12.69;59.38;98336.97;4801366;29;20052;-82
2022/02/21 07:51:00;;;;;;;21.95;3.75;;;10.50;99.90;;;12.25;60.13;98307.63;4825338;29;20032;-82
2022/02/21 07:53:26;;;;;;;26.20;3.88;;;10.40;99.90;;;11.55;60.58;98351.69;4809453;29;20050;-82
2022/02/21 07:56:01;;;;;;;23.65;3.60;;;10.60;99.90;;;12.37;59.94;98363.69;4794926;29;20405;-85
2022/02/21 07:58:27;;;;;;;23.65;3.50;;;10.90;99.90;;;12.85;58.19;98387.38;4803090;29;20465;-84
2022/02/21 08:00:53;;;;;;;20.45;3.10;;;11.20;99.90;;;13.18;56.71;98424.81;4805619;29;20158;-82
2022/02/21 08:03:19;;;;;;;16.23;2.70;;;11.60;99.90;;;13.07;57.24;98428.47;4809695;29;20027;-83
2022/02/21 08:05:56;;;;;;;19.60;3.00;;;11.70;99.90;;;11.97;60.02;98435.91;4795917;29;20493;-84
2022/02/21 08:08:22;;;;;;;25.90;3.38;;;11.50;99.90;;;11.37;61.39;98434.03;4787396;29;20214;-85
2022/02/21 08:10:55;;;;;;;23.75;3.17;;;11.40;99.90;;;11.90;60.33;98440.88;4814999;29;20108;-83
2022/02/21 08:13:24;;;;;;;24.45;3.30;;;11.50;99.90;;;11.92;60.07;98467.94;4822377;29;20097;-82
2022/02/21 08:15:50;;;;;;;29.58;3.83;;;11.70;99.90;;;11.94;59.99;98466.00;4815561;29;20051;-84
2022/02/21 08:18:24;;;;;;;30.33;3.88;;;11.90;99.90;;;12.31;59.57;98487.31;4812357;29;20036;-83
2022/02/21 08:20:50;;;;;;;25.50;4.05;;;12.10;99.90;;;12.37;59.59;98509.66;4817290;29;20159;-81
2022/02/21 08:23:16;;;;;;;20.70;2.95;;;12.20;99.90;;;12.26;59.26;98504.53;4815700;29;20498;-84
2022/02/21 08:25:42;;;;;;;20.85;3.60;;;12.40;99.90;;;12.00;59.27;98510.28;4814356;29;20060;-83
2022/02/21 08:28:16;;;;;;;34.53;4.63;;;12.40;99.90;;;12.20;59.34;98516.47;4812360;29;20112;-83
2022/02/21 08:30:41;;;;;;;30.83;4.95;;;12.50;99.90;;;11.79;59.58;98509.50;4800858;29;20112;-82
2022/02/21 08:33:07;;;;;;;30.75;4.10;;;12.20;99.90;;;10.47;62.35;98518.78;4793483;29;20057;-79
2022/02/21 08:35:33;;;;;;;25.35;4.05;;;11.60;99.90;;;9.96;64.35;98517.56;4824410;29;20048;-81
2022/02/21 08:38:02;;;;;;;21.55;3.53;;;11.10;99.90;;;9.54;65.55;98529.63;4821851;29;20424;-80
2022/02/21 08:40:30;;;;;;;28.58;3.58;;;10.70;99.90;;;8.97;67.16;98526.91;4885724;29;20052;-81
2022/02/21 08:42:56;;;;;;;19.35;3.38;;;10.30;99.90;;;8.42;68.92;98520.50;4825353;29;20040;-81
2022/02/21 08:45:23;;;;;;;20.00;2.83;;;9.90;99.90;;;8.31;69.53;98529.09;4804221;29;20039;-81
2022/02/21 08:47:54;;;;;;;31.88;4.00;;;9.80;99.90;;;8.76;69.48;98513.59;4832372;29;20036;-80
2022/02/21 08:50:23;;;;;;;27.73;3.33;;;9.90;99.90;;;9.36;67.29;98514.34;4817753;29;20020;-81
2022/02/21 08:52:49;;;;;;;24.48;3.78;;;10.40;99.90;;;9.96;65.24;98525.44;4800408;29;20123;-81
2022/02/21 08:55:15;;;;;;;26.08;3.42;;;10.80;99.90;;;10.10;64.38;98531.41;4799241;29;20520;-80
2022/02/21 08:57:43;;;;;;;14.55;2.70;;;11.00;99.90;;;9.93;63.67;98535.38;4810632;29;20501;-81
2022/02/21 09:00:16;;;;;;;19.80;3.42;;;11.00;99.90;;;9.55;64.43;98541.84;4807821;29;20513;-81
2022/02/21 09:02:44;;;;;;;18.67;3.08;;;10.50;99.90;;;8.21;67.02;98556.97;4800418;29;20099;-81
2022/02/21 09:05:23;;;;;;;20.50;2.88;;;9.70;99.90;;;7.26;69.52;98551.31;4815193;29;20029;-81
2022/02/21 09:07:49;;;;;;;18.67;3.20;;;9.30;99.90;;;7.44;70.69;98559.69;4832904;29;20074;-81
2022/02/21 09:10:15;;;;;;;18.05;3.15;;;9.00;99.90;;;7.05;71.82;98556.19;4816854;29;20076;-82
2022/02/21 09:12:50;;;;;;;19.38;3.05;;;;;;;7.56;71.59;98545.75;4802967;29;20115;-81
2022/02/21 09:15:16;;;;;;;19.15;3.15;;;8.90;99.90;;;7.69;71.14;98561.47;4846454;29;20465;-81
2022/02/21 09:17:42;;;;;;;24.00;2.95;;;8.80;99.90;;;7.27;71.06;98559.97;4833042;29;20036;-81
2022/02/21 09:20:17;;;;;;;20.92;2.55;;;8.60;99.90;;;6.98;72.95;98566.22;4798114;29;20047;-80
2022/02/21 09:22:53;;;;;;;15.80;2.10;;;8.40;99.90;;;6.66;74.06;98580.59;4817084;29;20528;-81
2022/02/21 09:25:19;;;;;;;12.80;2.23;;;8.10;99.90;;;6.41;75.03;98579.53;4802731;29;20386;-81
2022/02/21 09:27:45;;;;;;;17.88;2.50;;;7.90;99.90;;;6.19;75.79;98574.00;4803997;29;20127;-81
2022/02/21 09:30:12;;;;;;;13.07;2.15;;;7.70;99.90;;;5.87;76.98;98589.84;4816369;29;20153;-80
2022/02/21 09:32:38;;;;;;;14.05;2.17;;;7.60;99.90;;;6.33;78.04;98582.63;4835222;29;20060;-81
2022/02/21 09:35:13;;;;;;;14.70;2.30;;;7.70;99.90;;;6.49;78.20;98592.13;4808994;29;20071;-80
2022/02/21 09:37:44;;;;;;;18.48;2.58;;;8.00;99.90;;;7.29;76.24;98592.97;4835450;23;22006;-80
2022/02/21 09:40:14;;;;;;;17.13;2.58;;;8.30;99.90;;;7.74;74.39;98600.44;4837835;29;20039;-81
2022/02/21 09:42:44;;;;;;;19.60;2.45;;;8.30;99.90;;;7.38;75.99;98610.66;4811224;28;20032;-81
2022/02/21 09:45:38;;;;;;;19.33;2.95;;;8.30;99.90;;;7.02;76.50;98595.66;4822459;28;20043;-81
2022/02/21 09:48:15;;;;;;;14.80;2.90;;;8.10;99.90;;;6.45;77.24;98612.38;4792773;29;20036;-80
2022/02/21 09:50:45;;;;;;;20.58;2.90;;;7.90;99.90;;;6.12;78.61;98604.91;4842294;29;20032;-81
2022/02/21 09:53:11;;;;;;;31.42;3.95;;;7.70;99.90;;;5.96;79.83;98607.59;4833537;28;20036;-80
2022/02/21 09:55:44;;;;;;;21.33;2.75;;;7.50;99.90;;;5.85;80.38;98618.69;4804618;28;20502;-81
2022/02/21 09:58:13;;;;;;;26.85;2.92;;;7.40;99.90;;;5.66;80.78;98603.28;4838531;23;20053;-82
2022/02/21 10:00:39;;;;;;;24.90;4.15;;;7.30;99.90;;;5.75;81.14;98617.56;4793047;29;20044;-80
2022/02/21 10:03:10;;;;;;;19.48;3.05;;;7.40;99.90;;;6.16;79.84;98604.59;4813977;29;20094;-80
2022/02/21 10:05:37;;;;;;;26.80;3.67;;;7.50;99.90;;;6.22;79.21;98607.75;4810260;29;20060;-81
2022/02/21 10:08:15;;;;;;;25.38;2.83;;;7.60;99.90;;;6.48;78.65;98630.50;4823105;29;20041;-80
2022/02/21 10:10:44;;;;;;;18.17;2.28;;;7.60;99.90;;;6.18;78.39;98620.19;4803576;29;20048;-81
2022/02/21 10:13:26;;;;;;;25.58;3.80;;;7.50;99.90;;;6.05;79.37;98621.91;4822616;29;20047;-83
2022/02/21 10:16:01;;;;;;;20.15;2.63;;;7.50;99.90;;;6.13;79.78;98627.47;4828118;29;20040;-82
2022/02/21 10:18:28;;;;;;;18.98;2.53;;;7.50;99.90;;;6.20;79.46;98634.00;4812970;29;20480;-82
2022/02/21 10:21:03;;;;;;;19.63;2.88;;;7.50;99.90;;;6.27;79.17;98635.28;4894073;29;20063;-81
2022/02/21 10:23:41;;;;;;;23.13;2.95;;;7.60;99.90;;;6.35;79.41;98643.50;4787362;29;20041;-80
2022/02/21 10:26:08;;;;;;;25.95;3.08;;;7.60;99.90;;;6.30;80.02;98648.16;4802844;29;20020;-80
2022/02/21 10:28:38;;;;;;;13.68;2.17;;;7.60;99.90;;;6.08;80.55;98650.44;4801978;29;20029;-80
2022/02/21 10:31:23;;;;;;;20.58;2.42;;;7.50;99.90;;;5.97;81.96;98658.09;4826526;29;20024;-80
2022/02/21 10:34:09;;;;;;;13.15;2.35;;;7.30;99.90;;;5.69;83.40;98663.16;4810425;29;20024;-79
2022/02/21 10:36:46;;;;;;;16.33;2.00;;;7.20;99.90;;;5.38;84.50;98665.88;4780927;29;20108;-79
2022/02/21 10:39:18;;;;;;;13.20;2.05;;;7.00;99.90;;;5.10;85.99;98683.97;4852209;23;20063;-79
2022/02/21 10:41:57;;;;;;;16.10;2.25;;;6.80;99.90;;;4.89;86.60;98677.34;4866024;29;20035;-82
2022/02/21 10:44:29;;;;;;;23.17;2.63;;;6.60;99.90;;;4.92;87.48;98672.81;4830032;28;20041;-83
2022/02/21 10:47:10;;;;;;;18.35;2.53;;;6.60;99.90;;;5.06;87.72;98679.03;4848464;28;20045;-82
2022/02/21 10:49:43;;;;;;;17.63;2.42;;;6.60;99.90;;;5.14;87.17;98675.06;4849452;29;20105;-82